TimeEDT,TemperatureF,Dew PointF,Humidity,Sea Level PressureIn,VisibilityMPH,Wind Direction,Wind SpeedMPH,Gust SpeedMPH,PrecipitationIn,Events,Conditions,WindDirDegrees,DateUTC
12:53 AM,79.0,73.0,82,29.85,10.0,South,8.1,-,N/A,,Clear,170,2012-10-01 04:53:00
1:53 AM,78.1,73.0,84,29.83,10.0,South,6.9,-,N/A,,Clear,170,2012-10-01 05:53:00
2:53 AM,77.0,73.0,88,29.82,10.0,South,4.6,-,N/A,,Clear,190,2012-10-01 06:53:00
4:53 AM,75.9,73.0,91,29.80,10.0,SSE,4.6,-,N/A,,Clear,160,2012-10-01 08:53:00
6:53 AM,75.0,71.1,87,29.81,10.0,SSE,4.6,-,N/A,,Clear,150,2012-10-01 10:53:00
7:53 AM,75.9,72.0,87,29.82,10.0,SSE,4.6,-,N/A,,Clear,150,2012-10-01 11:53:00
8:53 AM,82.0,73.9,76,29.83,10.0,SSE,3.5,-,N/A,,Clear,160,2012-10-01 12:53:00
9:53 AM,82.9,75.0,77,29.83,10.0,SSE,8.1,-,N/A,,Partly Cloudy,150,2012-10-01 13:53:00
10:53 AM,84.9,72.0,65,29.83,10.0,SSE,13.8,-,N/A,,Scattered Clouds,160,2012-10-01 14:53:00
11:53 AM,86.0,73.0,65,29.82,10.0,SSE,9.2,-,N/A,,Mostly Cloudy,150,2012-10-01 15:53:00
12:53 PM,90.0,73.0,57,29.81,10.0,South,10.4,20.7,N/A,,Mostly Cloudy,190,2012-10-01 16:53:00
1:53 PM,80.1,75.0,85,29.79,7.0,South,10.4,-,0.03,Rain,Light Rain,190,2012-10-01 17:53:00
2:53 PM,87.1,75.9,69,29.77,10.0,South,10.4,-,0.00,,Partly Cloudy,180,2012-10-01 18:53:00
3:53 PM,88.0,73.0,61,29.76,10.0,SSW,16.1,23.0,N/A,,Mostly Cloudy,200,2012-10-01 19:53:00
4:53 PM,86.0,73.0,65,29.77,10.0,South,16.1,19.6,N/A,,Overcast,180,2012-10-01 20:53:00
5:53 PM,84.0,72.0,67,29.78,10.0,South,10.4,17.3,N/A,,Overcast,190,2012-10-01 21:53:00
6:53 PM,82.9,71.1,67,29.79,10.0,South,8.1,-,N/A,,Partly Cloudy,180,2012-10-01 22:53:00
7:53 PM,81.0,73.0,77,29.81,10.0,South,6.9,-,N/A,,Scattered Clouds,170,2012-10-01 23:53:00
8:53 PM,80.1,73.0,79,29.83,10.0,South,11.5,-,N/A,,Clear,170,2012-10-02 00:53:00
9:53 PM,78.1,73.0,84,29.84,10.0,South,9.2,-,N/A,,Partly Cloudy,190,2012-10-02 01:53:00
10:53 PM,77.0,73.0,88,29.85,10.0,South,9.2,-,N/A,,Clear,170,2012-10-02 02:53:00
11:53 PM,75.9,73.0,91,29.85,10.0,South,9.2,-,N/A,,Clear,170,2012-10-02 03:53:00